LFBO/TLS METAR and TAF weather

Enter ICAO airport designator
Station Type Date Time Source
LFBO METAR 2021/01/17 18:30 UTC NOAA

LFBO 171830Z AUTO 29005KT 270V340 CAVOK 05/02 Q1029 NOSIG


Station Type Date Time Source
LFBO Decoded METAR 2021/01/17 18:30 UTC NOAA

Toulouse / Blagnac, France (LFBO) 43-38N 001-22E 153M
Jan 17, 2021 - 01:30 PM EST / 2021.01.17 1830 UTC
Wind: from the WNW (290 degrees) at 6 MPH (5 KT) (direction variable):0
Visibility: greater than 7 mile(s):0
Temperature: 41 F (5 C)
Dew Point: 35 F (2 C)
Relative Humidity: 80%
Pressure (altimeter): 30.39 in. Hg (1029 hPa)
ob: LFBO 171830Z AUTO 29005KT 270V340 CAVOK 05/02 Q1029 NOSIG
cycle: 18

Station Type Date Time Source
LFBO TAF 2021/01/17 18:21 UTC NOAA

TAF LFBO 171700Z 1718/1824 32010KT 9999 SCT033
BECMG 1720/1722 VRB02KT
BECMG 1800/1802 4000 BR
TEMPO 1803/1809 0300 FG VV///
BECMG 1809/1811 9999 NSW OVC005
BECMG 1813/1815 FEW012 PROB30 1820/1824 OVC006

Example: see airport list